Euskara    
Meteorología y climatología de Navarra
Datos de la estación - Meteo Navarra

Estación de Estella GN

Altitud 486 m.


Datos desde el 18/10/2020 hasta el 19/10/2020 en horario solar
Los datos son PROVISIONALES

Anterior Página 1 de 1 Siguiente Descargar: Formato para Excel 2000 o superior   Formato csv   Formato para OpenOffice Calc
Fecha Temperatura Humedad relativa Radiación global Insolación Precipitación Vel. viento 10 m Vel. viento 10 m Dir. viento 10 m
°C % W/m² s l/m² m/s km/h °
18/10/2020 0:00 6.5 82 0.0 0 0.0 2.2 7.9 329
18/10/2020 0:10 6.5 82 0.0 0 0.0 2.0 7.2 332
18/10/2020 0:20 6.2 85 0.0 0 0.0 1.9 6.7 340
18/10/2020 0:30 5.8 90 0.0 0 0.0 1.5 5.3 325
18/10/2020 0:40 5.5 93 0.0 0 0.0 1.9 6.9 336
18/10/2020 0:50 5.3 95 0.0 0 0.0 1.9 6.7 333
18/10/2020 1:00 5.4 94 0.0 0 0.0 1.6 5.7 336
18/10/2020 1:10 5.3 93 0.0 0 0.0 1.9 6.7 338
18/10/2020 1:20 5.2 95 0.0 0 0.0 2.5 9.0 344
18/10/2020 1:30 5.1 94 0.0 0 0.0 1.9 6.8 340
18/10/2020 1:40 4.9 95 0.0 0 0.0 2.3 8.3 332
18/10/2020 1:50 4.9 92 0.0 0 0.0 2.2 7.8 334
18/10/2020 2:00 4.8 92 0.0 0 0.0 2.1 7.7 327
18/10/2020 2:10 4.7 92 0.0 0 0.0 2.2 7.8 328
18/10/2020 2:20 4.7 90 0.0 0 0.0 2.6 9.2 331
18/10/2020 2:30 5.0 87 0.0 0 0.0 2.2 7.9 322
18/10/2020 2:40 4.9 89 0.0 0 0.0 1.9 6.8 322
18/10/2020 2:50 4.6 91 0.0 0 0.0 1.6 5.6 312
18/10/2020 3:00 4.3 94 0.0 0 0.0 2.0 7.3 338
18/10/2020 3:10 4.1 95 0.0 0 0.0 1.6 5.8 328
18/10/2020 3:20 4.1 95 0.0 0 0.0 1.8 6.6 324
18/10/2020 3:30 4.2 95 0.0 0 0.0 2.1 7.7 327
18/10/2020 3:40 4.4 93 0.0 0 0.0 2.4 8.5 323
18/10/2020 3:50 4.6 90 0.0 0 0.0 2.8 10.1 331
18/10/2020 4:00 5.1 84 0.0 0 0.0 2.6 9.5 331
18/10/2020 4:10 4.7 85 0.0 0 0.0 2.6 9.3 322
18/10/2020 4:20 4.3 89 0.0 0 0.0 2.0 7.1 332
18/10/2020 4:30 4.0 92 0.0 0 0.0 1.7 6.3 328
18/10/2020 4:40 3.8 94 0.0 0 0.0 1.4 5.1 338
18/10/2020 4:50 3.6 95 0.0 0 0.0 1.4 5.0 327
18/10/2020 5:00 3.7 94 0.0 0 0.0 1.3 4.8 327
18/10/2020 5:10 3.8 93 0.0 0 0.0 2.0 7.0 337
18/10/2020 5:20 3.9 94 0.0 0 0.0 2.3 8.4 328
18/10/2020 5:30 3.9 93 0.0 0 0.0 2.4 8.5 325
18/10/2020 5:40 3.9 93 0.0 0 0.0 2.2 8.0 318
18/10/2020 5:50 3.9 93 0.0 0 0.0 1.9 6.7 314
18/10/2020 6:00 4.1 91 0.0 0 0.0 1.9 6.9 314
18/10/2020 6:10 3.9 91 0.0 0 0.0 1.6 5.7 312
18/10/2020 6:20 3.8 93 0.0 0 0.0 1.8 6.5 322
18/10/2020 6:30 3.6 95 0.0 0 0.0 1.5 5.3 326
18/10/2020 6:40 3.4 96 6.8 0 0.0 1.7 6.0 323
18/10/2020 6:50 3.6 96 25.1 0 0.0 2.2 7.8 323
18/10/2020 7:00 3.9 92 33.3 30 0.0 2.2 8.1 316
18/10/2020 7:10 4.0 93 43.2 0 0.0 2.0 7.1 332
18/10/2020 7:20 4.6 89 57.1 0 0.0 1.7 6.3 326
18/10/2020 7:30 4.9 87 91.5 278 0.0 2.1 7.7 325
18/10/2020 7:40 5.1 87 158.7 600 0.0 1.9 6.7 314
18/10/2020 7:50 5.6 85 178.8 600 0.0 2.0 7.2 317
18/10/2020 8:00 6.0 84 148.0 590 0.0 1.6 5.6 329
18/10/2020 8:10 6.2 83 163.7 600 0.0 1.1 3.9 334
18/10/2020 8:20 6.5 81 127.7 98 0.0 1.7 6.2 324
18/10/2020 8:30 6.4 83 132.1 122 0.0 1.1 4.0 313
18/10/2020 8:40 6.4 84 190.2 292 0.0 1.1 3.8 313
18/10/2020 8:50 7.2 81 284.6 600 0.0 1.4 4.9 298
18/10/2020 9:00 7.9 78 383.5 600 0.0 1.6 5.8 295
18/10/2020 9:10 8.5 75 394.2 600 0.0 1.7 6.3 284
18/10/2020 9:20 9.0 73 409.3 600 0.0 1.7 6.1 294
18/10/2020 9:30 9.6 72 463.6 600 0.0 1.8 6.6 294
18/10/2020 9:40 10.3 70 561.0 600 0.0 1.7 6.1 296
18/10/2020 9:50 11.5 63 522.0 600 0.0 1.0 3.5 253
18/10/2020 10:00 12.1 59 465.8 600 0.0 1.0 3.4 234
18/10/2020 10:10 12.4 58 495.6 600 0.0 0.7 2.4 235
18/10/2020 10:20 13.4 56 525.4 550 0.0 1.2 4.4 206
18/10/2020 10:30 13.6 54 418.3 386 0.0 1.0 3.5 204
18/10/2020 10:40 14.1 54 582.1 600 0.0 1.2 4.4 205
18/10/2020 10:50 14.7 52 603.1 600 0.0 1.3 4.5 210
18/10/2020 11:00 15.1 50 612.8 600 0.0 1.5 5.3 204
18/10/2020 11:10 15.7 49 624.0 600 0.0 1.3 4.8 188
18/10/2020 11:20 15.9 49 626.8 600 0.0 1.7 6.1 207
18/10/2020 11:30 16.3 49 626.3 600 0.0 1.6 5.8 194
18/10/2020 11:40 16.5 48 642.3 600 0.0 1.6 5.8 197
18/10/2020 11:50 16.6 47 635.5 600 0.0 2.0 7.3 203
18/10/2020 12:00 17.0 46 624.9 600 0.0 1.3 4.5 180
18/10/2020 12:10 17.3 46 617.2 600 0.0 1.2 4.5 191
18/10/2020 12:20 17.6 45 637.5 600 0.0 1.1 4.0 207
18/10/2020 12:30 18.3 44 650.5 600 0.0 0.8 2.8 220
18/10/2020 12:40 18.6 44 639.1 600 0.0 1.5 5.5 190
18/10/2020 12:50 18.7 43 599.6 600 0.0 1.4 5.1 190
18/10/2020 13:00 18.7 43 585.0 600 0.0 1.2 4.4 181
18/10/2020 13:10 19.0 43 618.4 600 0.0 1.3 4.5 183
18/10/2020 13:20 19.2 42 589.6 600 0.0 1.5 5.4 171
18/10/2020 13:30 19.1 43 449.8 600 0.0 1.4 4.9 189
18/10/2020 13:40 19.1 43 455.6 600 0.0 1.3 4.7 182
18/10/2020 13:50 19.7 41 521.9 600 0.0 1.6 5.8 173
18/10/2020 14:00 19.5 42 411.1 600 0.0 1.3 4.8 180
18/10/2020 14:10 19.7 41 348.5 600 0.0 1.2 4.4 187
18/10/2020 14:20 19.4 42 258.4 364 0.0 1.5 5.3 193
18/10/2020 14:30 19.1 43 191.8 0 0.0 1.1 4.1 204
18/10/2020 14:40 18.7 44 197.2 74 0.0 1.3 4.5 197
18/10/2020 14:50 18.8 44 182.3 0 0.0 0.8 2.7 179
18/10/2020 15:00 18.7 44 166.3 0 0.0 0.6 2.1 156
18/10/2020 15:10 18.6 45 196.0 306 0.0 0.6 2.0 174
18/10/2020 15:20 18.8 43 176.8 252 0.0 0.6 2.3 175
18/10/2020 15:30 18.6 44 141.7 14 0.0 0.5 1.9 165
18/10/2020 15:40 18.8 44 234.2 600 0.0 0.7 2.6 177
18/10/2020 15:50 19.3 41 225.2 600 0.0 0.9 3.2 156
18/10/2020 16:00 19.3 41 245.1 600 0.0 0.7 2.4 169
18/10/2020 16:10 19.5 40 201.0 600 0.0 1.2 4.3 202
18/10/2020 16:20 19.4 41 156.1 600 0.0 1.1 3.9 203
18/10/2020 16:30 19.1 41 116.8 600 0.0 0.8 2.9 174
18/10/2020 16:40 18.9 41 82.4 600 0.0 0.6 2.2 171
18/10/2020 16:50 18.9 41 48.3 506 0.0 0.6 2.0 186
18/10/2020 17:00 18.2 43 21.1 104 0.0 0.4 1.4 158
18/10/2020 17:10 16.9 47 0.0 0 0.0 0.6 2.0 65
18/10/2020 17:20 14.6 55 0.0 0 0.0 0.9 3.1 82
18/10/2020 17:30 14.4 55 0.0 0 0.0 1.2 4.5 61
18/10/2020 17:40 13.2 60 0.0 0 0.0 0.6 2.0 7
18/10/2020 17:50 13.5 58 0.0 0 0.0 1.3 4.7 75
18/10/2020 18:00 12.6 62 0.0 0 0.0 0.5 1.7 63
18/10/2020 18:10 12.8 61 0.0 0 0.0 0.8 2.9 80
18/10/2020 18:20 12.8 61 0.0 0 0.0 0.6 2.0 78
18/10/2020 18:30 12.2 63 0.0 0 0.0 0.6 2.0 65
18/10/2020 18:40 11.7 66 0.0 0 0.0 0.1 0.5 89
18/10/2020 18:50 11.2 68 0.0 0 0.0 0.3 1.0 81
18/10/2020 19:00 10.9 69 0.0 0 0.0 0.1 0.4 67
18/10/2020 19:10 10.4 72 0.0 0 0.0 0.0 0.0 96
18/10/2020 19:20 10.1 73 0.0 0 0.0 0.0 0.0 0
18/10/2020 19:30 9.8 75 0.0 0 0.0 0.0 0.0 0
18/10/2020 19:40 9.4 78 0.0 0 0.0 0.0 0.0 0
18/10/2020 19:50 9.2 78 0.0 0 0.0 0.1 0.5 220
18/10/2020 20:00 8.9 81 0.0 0 0.0 0.1 0.5 67
18/10/2020 20:10 8.7 82 0.0 0 0.0 0.0 0.0 0
18/10/2020 20:20 8.5 83 0.0 0 0.0 0.0 0.0 0
18/10/2020 20:30 8.4 85 0.0 0 0.0 0.0 0.0 0
18/10/2020 20:40 8.5 83 0.0 0 0.0 0.2 0.7 354
18/10/2020 20:50 8.2 84 0.0 0 0.0 0.0 0.0 4
18/10/2020 21:00 7.9 86 0.0 0 0.0 0.0 0.0 0
18/10/2020 21:10 7.8 88 0.0 0 0.0 0.0 0.1 4
18/10/2020 21:20 7.8 87 0.0 0 0.0 0.6 2.1 332
18/10/2020 21:30 7.4 89 0.0 0 0.0 0.2 0.6 274
18/10/2020 21:40 7.3 92 0.0 0 0.0 0.1 0.3 147
18/10/2020 21:50 7.3 91 0.0 0 0.0 0.2 0.6 332
18/10/2020 22:00 7.2 92 0.0 0 0.0 0.5 1.9 331
18/10/2020 22:10 6.9 91 0.0 0 0.0 0.1 0.3 346
18/10/2020 22:20 6.8 95 0.0 0 0.0 0.0 0.0 10
18/10/2020 22:30 6.5 95 0.0 0 0.0 0.1 0.2 78
18/10/2020 22:40 6.5 96 0.0 0 0.0 0.1 0.5 353
18/10/2020 22:50 6.3 96 0.0 0 0.0 0.6 2.0 330
18/10/2020 23:00 6.3 97 0.0 0 0.0 0.2 0.6 324
18/10/2020 23:10 6.1 95 0.0 0 0.0 0.0 0.1 318
18/10/2020 23:20 6.2 97 0.0 0 0.0 0.8 2.9 326
18/10/2020 23:30 6.0 97 0.0 0 0.0 0.0 0.1 318
18/10/2020 23:40 5.9 96 0.0 0 0.0 0.0 0.1 318
18/10/2020 23:50 5.8 96 0.0 0 0.0 0.0 0.1 318
Anterior Página 1 de 1 Siguiente

NOTA: Tipo de datos según el color:
   - Valores diarios o 10 minutos correctos
   - Valores diarios calculados a partir de un número de datos 10 minutos menor que 144 y mayor que 120, o de un número de datos semihorarios menor que 48 y mayor que 40 (caso de las estaciones de INTIA Y Ministerio)
   - Valores diez minutos estimados


Contacto        Enlaces        Aviso legal